sensor_id;sensor_type;location;lat;lon;timestamp;P1;durP1;ratioP1;P2;durP2;ratioP2
81841;SDS011;71284;50.918;7.092;2023-08-21T00:01:58;17.93;;;12.03;;
81841;SDS011;71284;50.918;7.092;2023-08-21T00:04:24;13.97;;;11.67;;
81841;SDS011;71284;50.918;7.092;2023-08-21T00:06:50;18.23;;;12.40;;
81841;SDS011;71284;50.918;7.092;2023-08-21T00:09:17;15.27;;;12.13;;
81841;SDS011;71284;50.918;7.092;2023-08-21T00:11:44;20.43;;;12.90;;
81841;SDS011;71284;50.918;7.092;2023-08-21T00:14:10;16.23;;;11.40;;
81841;SDS011;71284;50.918;7.092;2023-08-21T00:16:37;18.03;;;12.70;;
81841;SDS011;71284;50.918;7.092;2023-08-21T00:19:03;26.73;;;13.13;;
81841;SDS011;71284;50.918;7.092;2023-08-21T00:21:30;41.03;;;12.47;;
81841;SDS011;71284;50.918;7.092;2023-08-21T00:23:57;14.10;;;12.77;;
81841;SDS011;71284;50.918;7.092;2023-08-21T00:26:23;15.13;;;13.20;;
81841;SDS011;71284;50.918;7.092;2023-08-21T00:28:50;23.87;;;12.20;;
81841;SDS011;71284;50.918;7.092;2023-08-21T00:31:16;21.07;;;13.87;;
81841;SDS011;71284;50.918;7.092;2023-08-21T00:33:43;18.80;;;12.03;;
81841;SDS011;71284;50.918;7.092;2023-08-21T00:36:10;18.37;;;13.10;;
81841;SDS011;71284;50.918;7.092;2023-08-21T00:38:36;14.27;;;12.67;;
81841;SDS011;71284;50.918;7.092;2023-08-21T00:41:03;15.47;;;13.50;;
81841;SDS011;71284;50.918;7.092;2023-08-21T00:43:29;26.93;;;14.07;;
81841;SDS011;71284;50.918;7.092;2023-08-21T00:45:56;17.90;;;12.87;;
81841;SDS011;71284;50.918;7.092;2023-08-21T00:48:23;14.87;;;13.40;;
81841;SDS011;71284;50.918;7.092;2023-08-21T00:50:49;18.20;;;14.47;;
81841;SDS011;71284;50.918;7.092;2023-08-21T00:53:16;19.00;;;14.53;;
81841;SDS011;71284;50.918;7.092;2023-08-21T00:55:42;18.03;;;13.03;;
81841;SDS011;71284;50.918;7.092;2023-08-21T00:58:10;14.70;;;11.97;;
81841;SDS011;71284;50.918;7.092;2023-08-21T01:00:36;14.73;;;13.43;;
81841;SDS011;71284;50.918;7.092;2023-08-21T01:03:03;17.60;;;13.00;;
81841;SDS011;71284;50.918;7.092;2023-08-21T01:05:29;13.13;;;11.80;;
81841;SDS011;71284;50.918;7.092;2023-08-21T01:07:57;16.90;;;13.37;;
81841;SDS011;71284;50.918;7.092;2023-08-21T01:10:26;17.23;;;13.10;;
81841;SDS011;71284;50.918;7.092;2023-08-21T01:12:56;17.83;;;14.00;;
81841;SDS011;71284;50.918;7.092;2023-08-21T01:15:33;14.50;;;12.60;;
81841;SDS011;71284;50.918;7.092;2023-08-21T01:18:00;16.17;;;13.07;;
81841;SDS011;71284;50.918;7.092;2023-08-21T01:20:26;14.77;;;12.10;;
81841;SDS011;71284;50.918;7.092;2023-08-21T01:22:53;17.87;;;13.47;;
81841;SDS011;71284;50.918;7.092;2023-08-21T01:25:20;21.20;;;11.27;;
81841;SDS011;71284;50.918;7.092;2023-08-21T01:27:47;23.40;;;14.60;;
81841;SDS011;71284;50.918;7.092;2023-08-21T01:30:13;15.90;;;12.63;;
81841;SDS011;71284;50.918;7.092;2023-08-21T01:35:28;14.90;;;13.30;;
81841;SDS011;71284;50.918;7.092;2023-08-21T01:37:54;17.57;;;14.40;;
81841;SDS011;71284;50.918;7.092;2023-08-21T01:40:21;14.90;;;13.40;;
81841;SDS011;71284;50.918;7.092;2023-08-21T01:42:47;13.00;;;11.90;;
81841;SDS011;71284;50.918;7.092;2023-08-21T01:45:14;15.60;;;13.00;;
81841;SDS011;71284;50.918;7.092;2023-08-21T01:47:41;15.90;;;14.10;;
81841;SDS011;71284;50.918;7.092;2023-08-21T01:50:07;16.97;;;13.50;;
81841;SDS011;71284;50.918;7.092;2023-08-21T01:52:34;19.47;;;13.80;;
81841;SDS011;71284;50.918;7.092;2023-08-21T01:55:01;13.77;;;12.37;;
81841;SDS011;71284;50.918;7.092;2023-08-21T01:57:27;13.70;;;12.40;;
81841;SDS011;71284;50.918;7.092;2023-08-21T01:59:54;14.60;;;11.57;;
81841;SDS011;71284;50.918;7.092;2023-08-21T02:02:20;13.17;;;11.47;;
81841;SDS011;71284;50.918;7.092;2023-08-21T02:04:47;17.37;;;12.00;;
81841;SDS011;71284;50.918;7.092;2023-08-21T02:07:14;15.50;;;10.77;;
81841;SDS011;71284;50.918;7.092;2023-08-21T02:09:40;12.97;;;11.70;;
81841;SDS011;71284;50.918;7.092;2023-08-21T02:12:07;12.00;;;10.80;;
81841;SDS011;71284;50.918;7.092;2023-08-21T02:14:33;15.43;;;10.47;;
81841;SDS011;71284;50.918;7.092;2023-08-21T02:17:00;14.93;;;11.67;;
81841;SDS011;71284;50.918;7.092;2023-08-21T02:19:27;15.67;;;10.03;;
81841;SDS011;71284;50.918;7.092;2023-08-21T02:21:53;12.20;;;11.13;;
81841;SDS011;71284;50.918;7.092;2023-08-21T02:24:20;11.97;;;10.97;;
81841;SDS011;71284;50.918;7.092;2023-08-21T02:26:46;17.50;;;10.37;;
81841;SDS011;71284;50.918;7.092;2023-08-21T02:29:13;11.43;;;10.17;;
81841;SDS011;71284;50.918;7.092;2023-08-21T02:31:40;10.93;;;9.93;;
81841;SDS011;71284;50.918;7.092;2023-08-21T02:34:06;13.90;;;11.30;;
81841;SDS011;71284;50.918;7.092;2023-08-21T02:36:33;19.43;;;12.37;;
81841;SDS011;71284;50.918;7.092;2023-08-21T02:38:59;12.43;;;10.30;;
81841;SDS011;71284;50.918;7.092;2023-08-21T02:41:26;14.47;;;10.43;;
81841;SDS011;71284;50.918;7.092;2023-08-21T02:43:53;12.73;;;10.83;;
81841;SDS011;71284;50.918;7.092;2023-08-21T02:46:19;11.47;;;10.30;;
81841;SDS011;71284;50.918;7.092;2023-08-21T02:48:46;11.53;;;10.47;;
81841;SDS011;71284;50.918;7.092;2023-08-21T02:51:12;14.80;;;11.47;;
81841;SDS011;71284;50.918;7.092;2023-08-21T02:53:39;15.73;;;9.93;;
81841;SDS011;71284;50.918;7.092;2023-08-21T02:56:05;18.40;;;11.60;;
81841;SDS011;71284;50.918;7.092;2023-08-21T02:58:32;13.30;;;11.00;;
81841;SDS011;71284;50.918;7.092;2023-08-21T03:00:59;11.30;;;10.10;;
81841;SDS011;71284;50.918;7.092;2023-08-21T03:03:25;12.43;;;11.10;;
81841;SDS011;71284;50.918;7.092;2023-08-21T03:05:52;11.33;;;10.07;;
81841;SDS011;71284;50.918;7.092;2023-08-21T03:08:18;11.90;;;10.70;;
81841;SDS011;71284;50.918;7.092;2023-08-21T03:10:45;12.80;;;11.47;;
81841;SDS011;71284;50.918;7.092;2023-08-21T03:13:12;12.70;;;11.43;;
81841;SDS011;71284;50.918;7.092;2023-08-21T03:15:38;13.97;;;11.90;;
81841;SDS011;71284;50.918;7.092;2023-08-21T03:18:05;15.70;;;12.20;;
81841;SDS011;71284;50.918;7.092;2023-08-21T03:20:31;13.97;;;10.87;;
81841;SDS011;71284;50.918;7.092;2023-08-21T03:22:58;11.93;;;10.83;;
81841;SDS011;71284;50.918;7.092;2023-08-21T03:25:25;13.70;;;12.17;;
81841;SDS011;71284;50.918;7.092;2023-08-21T03:27:51;13.30;;;12.00;;
81841;SDS011;71284;50.918;7.092;2023-08-21T03:30:18;14.10;;;10.87;;
81841;SDS011;71284;50.918;7.092;2023-08-21T03:32:44;13.00;;;11.70;;
81841;SDS011;71284;50.918;7.092;2023-08-21T03:35:11;12.67;;;11.33;;
81841;SDS011;71284;50.918;7.092;2023-08-21T03:37:38;13.83;;;12.47;;
81841;SDS011;71284;50.918;7.092;2023-08-21T03:40:04;12.47;;;11.20;;
81841;SDS011;71284;50.918;7.092;2023-08-21T03:42:31;12.67;;;11.37;;
81841;SDS011;71284;50.918;7.092;2023-08-21T03:44:58;12.20;;;11.10;;
81841;SDS011;71284;50.918;7.092;2023-08-21T03:47:24;18.23;;;11.27;;
81841;SDS011;71284;50.918;7.092;2023-08-21T03:49:51;14.20;;;11.97;;
81841;SDS011;71284;50.918;7.092;2023-08-21T03:52:18;14.00;;;11.63;;
81841;SDS011;71284;50.918;7.092;2023-08-21T03:54:44;12.30;;;11.17;;
81841;SDS011;71284;50.918;7.092;2023-08-21T03:57:11;13.77;;;11.23;;
81841;SDS011;71284;50.918;7.092;2023-08-21T03:59:37;15.60;;;11.40;;
81841;SDS011;71284;50.918;7.092;2023-08-21T04:02:04;13.70;;;11.20;;
81841;SDS011;71284;50.918;7.092;2023-08-21T04:04:31;15.07;;;12.93;;
81841;SDS011;71284;50.918;7.092;2023-08-21T04:06:57;13.20;;;11.93;;
81841;SDS011;71284;50.918;7.092;2023-08-21T04:09:24;24.47;;;11.70;;
81841;SDS011;71284;50.918;7.092;2023-08-21T04:11:50;13.80;;;11.10;;
81841;SDS011;71284;50.918;7.092;2023-08-21T04:14:17;11.33;;;10.40;;
81841;SDS011;71284;50.918;7.092;2023-08-21T04:16:44;13.73;;;11.37;;
81841;SDS011;71284;50.918;7.092;2023-08-21T04:19:10;16.60;;;12.27;;
81841;SDS011;71284;50.918;7.092;2023-08-21T04:21:37;11.20;;;10.20;;
81841;SDS011;71284;50.918;7.092;2023-08-21T04:24:03;15.63;;;10.03;;
81841;SDS011;71284;50.918;7.092;2023-08-21T04:26:30;13.03;;;11.60;;
81841;SDS011;71284;50.918;7.092;2023-08-21T04:28:57;26.30;;;11.33;;
81841;SDS011;71284;50.918;7.092;2023-08-21T04:31:23;15.60;;;12.30;;
81841;SDS011;71284;50.918;7.092;2023-08-21T04:33:50;13.20;;;11.00;;
81841;SDS011;71284;50.918;7.092;2023-08-21T04:36:16;10.83;;;9.93;;
81841;SDS011;71284;50.918;7.092;2023-08-21T04:38:43;13.13;;;11.93;;
81841;SDS011;71284;50.918;7.092;2023-08-21T04:41:10;12.27;;;11.13;;
81841;SDS011;71284;50.918;7.092;2023-08-21T04:43:36;19.07;;;10.97;;
81841;SDS011;71284;50.918;7.092;2023-08-21T04:46:03;12.17;;;10.87;;
81841;SDS011;71284;50.918;7.092;2023-08-21T04:48:29;15.30;;;11.40;;
81841;SDS011;71284;50.918;7.092;2023-08-21T04:50:56;13.57;;;11.27;;
81841;SDS011;71284;50.918;7.092;2023-08-21T04:53:23;14.33;;;10.40;;
81841;SDS011;71284;50.918;7.092;2023-08-21T04:55:49;12.00;;;10.90;;
81841;SDS011;71284;50.918;7.092;2023-08-21T04:58:16;12.43;;;11.27;;
81841;SDS011;71284;50.918;7.092;2023-08-21T05:00:44;11.80;;;10.80;;
81841;SDS011;71284;50.918;7.092;2023-08-21T05:03:09;11.57;;;10.37;;
81841;SDS011;71284;50.918;7.092;2023-08-21T05:05:36;15.20;;;11.30;;
81841;SDS011;71284;50.918;7.092;2023-08-21T05:08:02;16.70;;;11.27;;
81841;SDS011;71284;50.918;7.092;2023-08-21T05:10:29;17.10;;;11.07;;
81841;SDS011;71284;50.918;7.092;2023-08-21T05:12:56;12.53;;;10.70;;
81841;SDS011;71284;50.918;7.092;2023-08-21T05:15:22;11.87;;;10.43;;
81841;SDS011;71284;50.918;7.092;2023-08-21T05:17:49;12.50;;;10.63;;
81841;SDS011;71284;50.918;7.092;2023-08-21T05:20:15;18.50;;;11.50;;
81841;SDS011;71284;50.918;7.092;2023-08-21T05:22:42;12.23;;;11.00;;
81841;SDS011;71284;50.918;7.092;2023-08-21T05:25:09;11.43;;;10.33;;
81841;SDS011;71284;50.918;7.092;2023-08-21T05:27:35;14.57;;;10.07;;
81841;SDS011;71284;50.918;7.092;2023-08-21T05:30:02;11.37;;;10.13;;
81841;SDS011;71284;50.918;7.092;2023-08-21T05:32:29;14.03;;;11.00;;
81841;SDS011;71284;50.918;7.092;2023-08-21T05:34:55;13.03;;;9.67;;
81841;SDS011;71284;50.918;7.092;2023-08-21T05:37:22;19.43;;;10.73;;
81841;SDS011;71284;50.918;7.092;2023-08-21T05:39:49;12.33;;;9.57;;
81841;SDS011;71284;50.918;7.092;2023-08-21T05:42:15;11.43;;;9.83;;
81841;SDS011;71284;50.918;7.092;2023-08-21T05:44:42;14.07;;;9.63;;
81841;SDS011;71284;50.918;7.092;2023-08-21T05:47:08;10.83;;;9.73;;
81841;SDS011;71284;50.918;7.092;2023-08-21T05:49:35;11.20;;;9.03;;
81841;SDS011;71284;50.918;7.092;2023-08-21T05:52:02;10.10;;;9.20;;
81841;SDS011;71284;50.918;7.092;2023-08-21T05:54:28;12.70;;;9.40;;
81841;SDS011;71284;50.918;7.092;2023-08-21T05:56:55;10.53;;;9.40;;
81841;SDS011;71284;50.918;7.092;2023-08-21T05:59:26;10.13;;;9.23;;
81841;SDS011;71284;50.918;7.092;2023-08-21T06:01:53;10.23;;;9.17;;
81841;SDS011;71284;50.918;7.092;2023-08-21T06:04:19;19.07;;;10.40;;
81841;SDS011;71284;50.918;7.092;2023-08-21T06:06:46;10.83;;;8.30;;
81841;SDS011;71284;50.918;7.092;2023-08-21T06:09:13;9.87;;;8.90;;
81841;SDS011;71284;50.918;7.092;2023-08-21T06:11:39;14.37;;;9.30;;
81841;SDS011;71284;50.918;7.092;2023-08-21T06:14:06;9.40;;;8.60;;
81841;SDS011;71284;50.918;7.092;2023-08-21T06:16:32;12.40;;;9.40;;
81841;SDS011;71284;50.918;7.092;2023-08-21T06:18:59;14.00;;;10.03;;
81841;SDS011;71284;50.918;7.092;2023-08-21T06:21:26;11.17;;;10.03;;
81841;SDS011;71284;50.918;7.092;2023-08-21T06:23:52;14.90;;;10.40;;
81841;SDS011;71284;50.918;7.092;2023-08-21T06:26:19;10.70;;;9.03;;
81841;SDS011;71284;50.918;7.092;2023-08-21T06:28:45;19.20;;;9.60;;
81841;SDS011;71284;50.918;7.092;2023-08-21T06:31:12;13.00;;;8.50;;
81841;SDS011;71284;50.918;7.092;2023-08-21T06:33:39;11.10;;;8.67;;
81841;SDS011;71284;50.918;7.092;2023-08-21T06:36:05;11.33;;;9.67;;
81841;SDS011;71284;50.918;7.092;2023-08-21T06:38:32;10.13;;;9.13;;
81841;SDS011;71284;50.918;7.092;2023-08-21T06:40:58;17.60;;;10.83;;
81841;SDS011;71284;50.918;7.092;2023-08-21T06:43:25;14.90;;;10.23;;
81841;SDS011;71284;50.918;7.092;2023-08-21T06:45:51;13.80;;;10.50;;
81841;SDS011;71284;50.918;7.092;2023-08-21T06:48:18;20.83;;;10.03;;
81841;SDS011;71284;50.918;7.092;2023-08-21T06:50:45;21.23;;;12.27;;
81841;SDS011;71284;50.918;7.092;2023-08-21T06:53:11;19.43;;;10.83;;
81841;SDS011;71284;50.918;7.092;2023-08-21T06:55:38;15.10;;;13.70;;
81841;SDS011;71284;50.918;7.092;2023-08-21T06:58:04;13.00;;;11.13;;
81841;SDS011;71284;50.918;7.092;2023-08-21T07:00:31;11.67;;;10.57;;
81841;SDS011;71284;50.918;7.092;2023-08-21T07:02:58;13.50;;;10.50;;
81841;SDS011;71284;50.918;7.092;2023-08-21T07:05:24;12.63;;;10.13;;
81841;SDS011;71284;50.918;7.092;2023-08-21T07:07:51;16.37;;;11.80;;
81841;SDS011;71284;50.918;7.092;2023-08-21T07:10:17;12.07;;;10.80;;
81841;SDS011;71284;50.918;7.092;2023-08-21T07:12:44;20.53;;;11.90;;
81841;SDS011;71284;50.918;7.092;2023-08-21T07:15:11;13.30;;;12.00;;
81841;SDS011;71284;50.918;7.092;2023-08-21T07:17:37;21.43;;;12.57;;
81841;SDS011;71284;50.918;7.092;2023-08-21T07:20:04;19.40;;;12.27;;
81841;SDS011;71284;50.918;7.092;2023-08-21T07:22:31;16.73;;;13.20;;
81841;SDS011;71284;50.918;7.092;2023-08-21T07:24:58;13.50;;;12.00;;
81841;SDS011;71284;50.918;7.092;2023-08-21T07:27:24;12.40;;;11.17;;
81841;SDS011;71284;50.918;7.092;2023-08-21T07:29:51;14.30;;;11.50;;
81841;SDS011;71284;50.918;7.092;2023-08-21T07:32:18;12.10;;;11.03;;
81841;SDS011;71284;50.918;7.092;2023-08-21T07:34:44;16.63;;;11.73;;
81841;SDS011;71284;50.918;7.092;2023-08-21T07:37:11;15.43;;;12.20;;
81841;SDS011;71284;50.918;7.092;2023-08-21T07:39:37;15.87;;;13.70;;
81841;SDS011;71284;50.918;7.092;2023-08-21T07:42:04;15.20;;;13.60;;
81841;SDS011;71284;50.918;7.092;2023-08-21T07:44:31;15.43;;;12.20;;
81841;SDS011;71284;50.918;7.092;2023-08-21T07:46:57;14.60;;;13.07;;
81841;SDS011;71284;50.918;7.092;2023-08-21T07:49:24;13.13;;;11.97;;
81841;SDS011;71284;50.918;7.092;2023-08-21T07:51:50;16.23;;;13.07;;
81841;SDS011;71284;50.918;7.092;2023-08-21T07:54:17;14.20;;;12.90;;
81841;SDS011;71284;50.918;7.092;2023-08-21T07:56:44;13.13;;;11.80;;
81841;SDS011;71284;50.918;7.092;2023-08-21T07:59:10;25.37;;;12.80;;
81841;SDS011;71284;50.918;7.092;2023-08-21T08:01:37;12.40;;;10.90;;
81841;SDS011;71284;50.918;7.092;2023-08-21T08:04:03;14.37;;;12.70;;
81841;SDS011;71284;50.918;7.092;2023-08-21T08:06:31;15.40;;;13.87;;
81841;SDS011;71284;50.918;7.092;2023-08-21T08:08:57;18.37;;;13.77;;
81841;SDS011;71284;50.918;7.092;2023-08-21T08:11:23;14.67;;;13.23;;
81841;SDS011;71284;50.918;7.092;2023-08-21T08:13:50;25.23;;;14.37;;
81841;SDS011;71284;50.918;7.092;2023-08-21T08:16:16;17.30;;;13.47;;
81841;SDS011;71284;50.918;7.092;2023-08-21T08:18:43;17.10;;;15.40;;
81841;SDS011;71284;50.918;7.092;2023-08-21T08:21:10;16.93;;;15.37;;
81841;SDS011;71284;50.918;7.092;2023-08-21T08:23:36;17.77;;;15.67;;
81841;SDS011;71284;50.918;7.092;2023-08-21T08:26:03;17.47;;;13.93;;
81841;SDS011;71284;50.918;7.092;2023-08-21T08:28:29;15.50;;;13.40;;
81841;SDS011;71284;50.918;7.092;2023-08-21T08:30:56;16.87;;;14.53;;
81841;SDS011;71284;50.918;7.092;2023-08-21T08:33:23;15.73;;;14.13;;
81841;SDS011;71284;50.918;7.092;2023-08-21T08:35:49;15.17;;;12.20;;
81841;SDS011;71284;50.918;7.092;2023-08-21T08:38:16;16.77;;;14.70;;
81841;SDS011;71284;50.918;7.092;2023-08-21T08:40:43;15.67;;;13.30;;
81841;SDS011;71284;50.918;7.092;2023-08-21T08:43:10;21.43;;;14.07;;
81841;SDS011;71284;50.918;7.092;2023-08-21T08:45:35;19.73;;;14.30;;
81841;SDS011;71284;50.918;7.092;2023-08-21T08:48:04;14.90;;;13.13;;
81841;SDS011;71284;50.918;7.092;2023-08-21T08:50:29;19.97;;;12.73;;
81841;SDS011;71284;50.918;7.092;2023-08-21T08:52:56;13.60;;;12.30;;
81841;SDS011;71284;50.918;7.092;2023-08-21T08:55:22;13.40;;;12.20;;
81841;SDS011;71284;50.918;7.092;2023-08-21T08:57:49;23.50;;;15.80;;
81841;SDS011;71284;50.918;7.092;2023-08-21T09:00:16;28.33;;;13.37;;
81841;SDS011;71284;50.918;7.092;2023-08-21T09:02:43;21.63;;;14.63;;
81841;SDS011;71284;50.918;7.092;2023-08-21T09:05:10;16.90;;;14.00;;
81841;SDS011;71284;50.918;7.092;2023-08-21T09:07:36;18.03;;;13.43;;
81841;SDS011;71284;50.918;7.092;2023-08-21T09:10:03;13.47;;;12.07;;
81841;SDS011;71284;50.918;7.092;2023-08-21T09:12:32;17.17;;;11.90;;
81841;SDS011;71284;50.918;7.092;2023-08-21T09:14:59;15.47;;;12.90;;
81841;SDS011;71284;50.918;7.092;2023-08-21T09:17:26;14.83;;;13.33;;
81841;SDS011;71284;50.918;7.092;2023-08-21T09:19:53;17.13;;;14.00;;
81841;SDS011;71284;50.918;7.092;2023-08-21T09:22:19;13.37;;;11.40;;
81841;SDS011;71284;50.918;7.092;2023-08-21T09:27:24;15.13;;;13.73;;
81841;SDS011;71284;50.918;7.092;2023-08-21T09:29:50;15.70;;;13.10;;
81841;SDS011;71284;50.918;7.092;2023-08-21T09:32:17;16.20;;;14.60;;
81841;SDS011;71284;50.918;7.092;2023-08-21T09:34:44;23.20;;;14.17;;
81841;SDS011;71284;50.918;7.092;2023-08-21T09:37:10;14.23;;;12.33;;
81841;SDS011;71284;50.918;7.092;2023-08-21T09:39:37;16.70;;;11.20;;
81841;SDS011;71284;50.918;7.092;2023-08-21T09:42:05;20.90;;;11.83;;
81841;SDS011;71284;50.918;7.092;2023-08-21T09:44:35;25.33;;;13.30;;
81841;SDS011;71284;50.918;7.092;2023-08-21T09:47:03;14.53;;;10.93;;
81841;SDS011;71284;50.918;7.092;2023-08-21T09:49:29;11.70;;;9.90;;
81841;SDS011;71284;50.918;7.092;2023-08-21T09:51:57;13.43;;;9.07;;
81841;SDS011;71284;50.918;7.092;2023-08-21T09:54:23;12.13;;;9.63;;
81841;SDS011;71284;50.918;7.092;2023-08-21T09:56:49;10.53;;;8.10;;
81841;SDS011;71284;50.918;7.092;2023-08-21T09:59:16;13.47;;;8.70;;
81841;SDS011;71284;50.918;7.092;2023-08-21T10:01:42;17.63;;;7.97;;
81841;SDS011;71284;50.918;7.092;2023-08-21T10:04:09;11.37;;;9.40;;
81841;SDS011;71284;50.918;7.092;2023-08-21T10:06:36;9.67;;;8.57;;
81841;SDS011;71284;50.918;7.092;2023-08-21T10:09:02;11.90;;;10.10;;
81841;SDS011;71284;50.918;7.092;2023-08-21T10:11:29;9.67;;;8.90;;
81841;SDS011;71284;50.918;7.092;2023-08-21T10:13:55;15.00;;;8.10;;
81841;SDS011;71284;50.918;7.092;2023-08-21T10:16:22;15.87;;;8.27;;
81841;SDS011;71284;50.918;7.092;2023-08-21T10:18:49;10.60;;;9.60;;
81841;SDS011;71284;50.918;7.092;2023-08-21T10:21:16;17.40;;;7.87;;
81841;SDS011;71284;50.918;7.092;2023-08-21T10:23:42;11.33;;;8.60;;
81841;SDS011;71284;50.918;7.092;2023-08-21T10:26:09;14.73;;;8.13;;
81841;SDS011;71284;50.918;7.092;2023-08-21T10:33:51;16.80;;;8.27;;
81841;SDS011;71284;50.918;7.092;2023-08-21T10:38:59;20.63;;;11.30;;
81841;SDS011;71284;50.918;7.092;2023-08-21T10:41:26;12.33;;;8.67;;
81841;SDS011;71284;50.918;7.092;2023-08-21T10:43:52;14.50;;;9.57;;
81841;SDS011;71284;50.918;7.092;2023-08-21T10:46:19;10.00;;;8.17;;
81841;SDS011;71284;50.918;7.092;2023-08-21T10:48:46;9.93;;;8.93;;
81841;SDS011;71284;50.918;7.092;2023-08-21T10:51:12;16.67;;;10.00;;
81841;SDS011;71284;50.918;7.092;2023-08-21T10:53:39;11.63;;;7.90;;
81841;SDS011;71284;50.918;7.092;2023-08-21T10:56:05;12.43;;;9.10;;
81841;SDS011;71284;50.918;7.092;2023-08-21T10:58:40;14.87;;;8.90;;
81841;SDS011;71284;50.918;7.092;2023-08-21T11:01:04;14.13;;;9.27;;
81841;SDS011;71284;50.918;7.092;2023-08-21T11:03:31;16.53;;;10.23;;
81841;SDS011;71284;50.918;7.092;2023-08-21T11:06:01;13.17;;;7.17;;
81841;SDS011;71284;50.918;7.092;2023-08-21T11:08:27;21.43;;;8.87;;
81841;SDS011;71284;50.918;7.092;2023-08-21T11:10:53;10.90;;;7.47;;
81841;SDS011;71284;50.918;7.092;2023-08-21T11:13:23;12.63;;;7.80;;
81841;SDS011;71284;50.918;7.092;2023-08-21T11:15:47;8.77;;;7.87;;
81841;SDS011;71284;50.918;7.092;2023-08-21T11:18:13;14.53;;;8.87;;
81841;SDS011;71284;50.918;7.092;2023-08-21T11:20:40;8.10;;;7.30;;
81841;SDS011;71284;50.918;7.092;2023-08-21T11:23:06;16.97;;;9.70;;
81841;SDS011;71284;50.918;7.092;2023-08-21T11:25:33;8.83;;;7.93;;
81841;SDS011;71284;50.918;7.092;2023-08-21T11:28:00;11.60;;;10.40;;
81841;SDS011;71284;50.918;7.092;2023-08-21T11:30:26;13.93;;;8.37;;
81841;SDS011;71284;50.918;7.092;2023-08-21T11:35:33;18.67;;;8.50;;
81841;SDS011;71284;50.918;7.092;2023-08-21T11:37:59;9.10;;;8.00;;
81841;SDS011;71284;50.918;7.092;2023-08-21T11:40:26;17.13;;;8.07;;
81841;SDS011;71284;50.918;7.092;2023-08-21T11:42:53;9.60;;;8.70;;
81841;SDS011;71284;50.918;7.092;2023-08-21T11:45:20;15.90;;;9.00;;
81841;SDS011;71284;50.918;7.092;2023-08-21T11:47:47;11.17;;;9.60;;
81841;SDS011;71284;50.918;7.092;2023-08-21T11:50:14;13.10;;;9.33;;
81841;SDS011;71284;50.918;7.092;2023-08-21T11:52:40;15.83;;;9.43;;
81841;SDS011;71284;50.918;7.092;2023-08-21T11:55:07;8.70;;;7.93;;
81841;SDS011;71284;50.918;7.092;2023-08-21T11:57:34;9.87;;;7.87;;
81841;SDS011;71284;50.918;7.092;2023-08-21T12:00:00;10.93;;;8.47;;
81841;SDS011;71284;50.918;7.092;2023-08-21T12:02:27;10.07;;;8.60;;
81841;SDS011;71284;50.918;7.092;2023-08-21T12:04:54;14.97;;;7.70;;
81841;SDS011;71284;50.918;7.092;2023-08-21T12:07:21;19.67;;;9.27;;
81841;SDS011;71284;50.918;7.092;2023-08-21T12:09:48;8.60;;;6.90;;
81841;SDS011;71284;50.918;7.092;2023-08-21T12:12:15;10.07;;;6.70;;
81841;SDS011;71284;50.918;7.092;2023-08-21T12:14:41;13.20;;;7.40;;
81841;SDS011;71284;50.918;7.092;2023-08-21T12:17:08;11.10;;;7.80;;
81841;SDS011;71284;50.918;7.092;2023-08-21T12:19:34;14.60;;;6.93;;
81841;SDS011;71284;50.918;7.092;2023-08-21T12:22:01;13.70;;;7.60;;
81841;SDS011;71284;50.918;7.092;2023-08-21T12:24:28;10.73;;;6.83;;
81841;SDS011;71284;50.918;7.092;2023-08-21T12:26:55;6.80;;;6.20;;
81841;SDS011;71284;50.918;7.092;2023-08-21T12:29:22;9.17;;;6.43;;
81841;SDS011;71284;50.918;7.092;2023-08-21T12:31:48;10.73;;;5.70;;
81841;SDS011;71284;50.918;7.092;2023-08-21T12:34:15;7.57;;;5.00;;
81841;SDS011;71284;50.918;7.092;2023-08-21T12:36:41;11.20;;;5.97;;
81841;SDS011;71284;50.918;7.092;2023-08-21T12:39:08;9.20;;;5.17;;
81841;SDS011;71284;50.918;7.092;2023-08-21T12:41:34;6.83;;;5.30;;
81841;SDS011;71284;50.918;7.092;2023-08-21T12:44:01;6.47;;;5.30;;
81841;SDS011;71284;50.918;7.092;2023-08-21T12:46:29;9.37;;;3.90;;
81841;SDS011;71284;50.918;7.092;2023-08-21T12:48:55;5.53;;;5.00;;
81841;SDS011;71284;50.918;7.092;2023-08-21T12:51:22;5.50;;;4.27;;
81841;SDS011;71284;50.918;7.092;2023-08-21T12:53:48;8.80;;;4.40;;
81841;SDS011;71284;50.918;7.092;2023-08-21T12:56:16;5.53;;;4.00;;
81841;SDS011;71284;50.918;7.092;2023-08-21T12:58:41;7.70;;;3.60;;
81841;SDS011;71284;50.918;7.092;2023-08-21T13:01:08;5.53;;;4.23;;
81841;SDS011;71284;50.918;7.092;2023-08-21T13:03:35;11.40;;;4.10;;
81841;SDS011;71284;50.918;7.092;2023-08-21T13:06:01;4.10;;;2.60;;
81841;SDS011;71284;50.918;7.092;2023-08-21T13:08:28;8.90;;;3.13;;
81841;SDS011;71284;50.918;7.092;2023-08-21T13:10:54;5.97;;;2.70;;
81841;SDS011;71284;50.918;7.092;2023-08-21T13:13:21;7.63;;;2.63;;
81841;SDS011;71284;50.918;7.092;2023-08-21T13:15:48;2.60;;;2.30;;
81841;SDS011;71284;50.918;7.092;2023-08-21T13:18:14;4.97;;;2.33;;
81841;SDS011;71284;50.918;7.092;2023-08-21T13:20:42;3.40;;;2.00;;
81841;SDS011;71284;50.918;7.092;2023-08-21T13:23:09;2.50;;;2.30;;
81841;SDS011;71284;50.918;7.092;2023-08-21T13:25:35;5.20;;;3.30;;
81841;SDS011;71284;50.918;7.092;2023-08-21T13:28:02;5.60;;;2.83;;
81841;SDS011;71284;50.918;7.092;2023-08-21T13:30:29;3.03;;;2.40;;
81841;SDS011;71284;50.918;7.092;2023-08-21T13:32:55;4.63;;;2.30;;
81841;SDS011;71284;50.918;7.092;2023-08-21T13:35:22;4.27;;;2.87;;
81841;SDS011;71284;50.918;7.092;2023-08-21T13:37:49;20.13;;;2.80;;
81841;SDS011;71284;50.918;7.092;2023-08-21T13:40:15;8.13;;;3.40;;
81841;SDS011;71284;50.918;7.092;2023-08-21T13:42:42;2.77;;;2.37;;
81841;SDS011;71284;50.918;7.092;2023-08-21T13:45:11;7.10;;;3.70;;
81841;SDS011;71284;50.918;7.092;2023-08-21T13:47:38;3.67;;;2.90;;
81841;SDS011;71284;50.918;7.092;2023-08-21T13:50:04;6.30;;;3.50;;
81841;SDS011;71284;50.918;7.092;2023-08-21T13:52:32;6.83;;;4.13;;
81841;SDS011;71284;50.918;7.092;2023-08-21T13:54:58;4.47;;;3.73;;
81841;SDS011;71284;50.918;7.092;2023-08-21T13:57:25;6.10;;;2.50;;
81841;SDS011;71284;50.918;7.092;2023-08-21T13:59:51;7.30;;;3.40;;
81841;SDS011;71284;50.918;7.092;2023-08-21T14:02:18;3.40;;;3.10;;
81841;SDS011;71284;50.918;7.092;2023-08-21T14:04:45;10.73;;;3.50;;
81841;SDS011;71284;50.918;7.092;2023-08-21T14:07:11;6.33;;;3.57;;
81841;SDS011;71284;50.918;7.092;2023-08-21T14:09:38;6.20;;;2.93;;
81841;SDS011;71284;50.918;7.092;2023-08-21T14:12:04;6.10;;;3.43;;
81841;SDS011;71284;50.918;7.092;2023-08-21T14:14:31;7.30;;;3.10;;
81841;SDS011;71284;50.918;7.092;2023-08-21T14:16:58;4.20;;;3.30;;
81841;SDS011;71284;50.918;7.092;2023-08-21T14:19:24;3.23;;;3.03;;
81841;SDS011;71284;50.918;7.092;2023-08-21T14:21:51;5.33;;;3.10;;
81841;SDS011;71284;50.918;7.092;2023-08-21T14:24:17;10.43;;;3.00;;
81841;SDS011;71284;50.918;7.092;2023-08-21T14:26:44;4.70;;;3.27;;
81841;SDS011;71284;50.918;7.092;2023-08-21T14:29:11;9.90;;;4.10;;
81841;SDS011;71284;50.918;7.092;2023-08-21T14:31:38;5.27;;;3.20;;
81841;SDS011;71284;50.918;7.092;2023-08-21T14:34:05;7.17;;;3.20;;
81841;SDS011;71284;50.918;7.092;2023-08-21T14:36:31;9.63;;;2.90;;
81841;SDS011;71284;50.918;7.092;2023-08-21T14:38:58;4.27;;;3.00;;
81841;SDS011;71284;50.918;7.092;2023-08-21T14:41:24;5.53;;;3.43;;